createdAt,value
2023-03-19T04:27:32.581Z,95311.56
2023-03-19T04:30:05.076Z,95315.53
2023-03-19T04:32:35.603Z,95325.09
2023-03-19T04:35:06.362Z,95317.56
2023-03-19T04:37:36.065Z,95324.53
2023-03-19T04:40:08.188Z,95333.50
2023-03-19T04:42:39.720Z,95331.31
2023-03-19T04:45:15.454Z,95337.84
2023-03-19T04:47:45.297Z,95333.53
2023-03-19T04:50:15.004Z,95332.16
2023-03-19T04:52:45.805Z,95334.19
2023-03-19T04:55:15.424Z,95342.19
2023-03-19T04:57:52.767Z,95338.41
2023-03-19T05:00:27.108Z,95332.94
2023-03-19T05:02:56.686Z,95339.09
2023-03-19T05:05:26.889Z,95347.91
2023-03-19T05:07:57.440Z,95351.69
2023-03-19T05:10:27.787Z,95342.63
2023-03-19T05:12:57.293Z,95349.41
2023-03-19T05:15:28.620Z,95343.16
2023-03-19T05:18:05.373Z,95340.84
2023-03-19T05:20:40.537Z,95346.16
2023-03-19T05:23:18.895Z,95352.34
2023-03-19T05:25:59.771Z,95349.63
2023-03-19T05:28:49.335Z,95341.59
2023-03-19T05:31:24.722Z,95355.78
2023-03-19T05:33:56.573Z,95355.22
2023-03-19T05:36:26.415Z,95355.72
2023-03-19T05:39:08.075Z,95360.22
2023-03-19T05:41:40.118Z,95362.56
2023-03-19T05:44:10.231Z,95358.00
2023-03-19T05:46:52.246Z,95379.91
2023-03-19T05:49:23.198Z,95385.00
2023-03-19T05:51:52.753Z,95388.00
2023-03-19T05:54:22.273Z,95392.53
2023-03-19T05:56:58.645Z,95404.56
2023-03-19T05:59:51.124Z,95413.16
2023-03-19T06:02:51.645Z,95412.91
2023-03-19T06:05:33.459Z,95415.66
2023-03-19T06:08:12.080Z,95414.91
2023-03-19T06:11:00.613Z,95425.41
2023-03-19T06:13:31.014Z,95417.84
2023-03-19T06:16:09.472Z,95426.56
2023-03-19T06:18:45.682Z,95433.81
2023-03-19T06:21:18.086Z,95440.94
2023-03-19T06:23:47.806Z,95458.94
2023-03-19T06:26:21.442Z,95464.34
2023-03-19T06:28:57.555Z,95472.47
2023-03-19T06:31:28.849Z,95471.47
2023-03-19T06:34:08.639Z,95480.13
2023-03-19T06:36:44.523Z,95473.50
2023-03-19T06:39:16.641Z,95479.50
2023-03-19T06:41:47.179Z,95472.47
2023-03-19T06:44:21.660Z,95477.63
2023-03-19T06:46:51.626Z,95483.28
2023-03-19T06:49:23.127Z,95485.47
2023-03-19T06:51:53.188Z,95482.91
2023-03-19T06:54:24.899Z,95482.44
2023-03-19T06:56:55.612Z,95485.44
2023-03-19T06:59:25.977Z,95481.13
2023-03-19T07:01:56.286Z,95481.13
2023-03-19T07:04:28.148Z,95485.72
2023-03-19T07:06:58.630Z,95486.28
2023-03-19T07:09:29.515Z,95493.31
2023-03-19T07:12:00.384Z,95492.56
2023-03-19T07:14:30.718Z,95509.75
2023-03-19T07:17:00.482Z,95507.59
2023-03-19T07:19:31.553Z,95515.66
2023-03-19T07:22:01.607Z,95521.28
2023-03-19T07:24:31.642Z,95521.03
2023-03-19T07:27:03.327Z,95518.06
2023-03-19T07:29:33.485Z,95518.34
2023-03-19T07:32:03.229Z,95529.44
2023-03-19T07:34:34.225Z,95540.75
2023-03-19T07:37:04.164Z,95537.28
2023-03-19T07:39:34.181Z,95545.06
2023-03-19T07:42:03.751Z,95543.72
2023-03-19T07:44:33.513Z,95545.28
2023-03-19T07:47:03.380Z,95542.59
2023-03-19T07:49:34.394Z,95540.47
2023-03-19T07:52:03.994Z,95545.88
2023-03-19T07:54:33.592Z,95553.38
2023-03-19T07:57:03.249Z,95546.94
2023-03-19T07:59:36.797Z,95549.03
2023-03-19T08:02:07.127Z,95558.44
2023-03-19T08:04:38.681Z,95559.53
2023-03-19T08:07:10.782Z,95555.69
2023-03-19T08:09:41.442Z,95565.44
2023-03-19T08:12:12.074Z,95557.69
2023-03-19T08:14:41.736Z,95562.16
2023-03-19T08:17:11.507Z,95561.41
2023-03-19T08:19:42.522Z,95560.31
2023-03-19T08:22:12.824Z,95562.16
2023-03-19T08:24:42.474Z,95557.88
2023-03-19T08:27:12.092Z,95565.88
2023-03-19T08:29:41.938Z,95562.16
2023-03-19T08:32:11.961Z,95567.03
2023-03-19T08:35:08.730Z,95573.50
2023-03-19T08:37:39.769Z,95571.63
2023-03-19T08:40:11.980Z,95571.91
2023-03-19T08:42:45.088Z,95568.94
2023-03-19T08:45:17.390Z,95579.50
2023-03-19T08:47:47.314Z,95579.16
2023-03-19T08:50:20.048Z,95586.44
2023-03-19T08:52:49.829Z,95589.91
2023-03-19T08:55:21.038Z,95593.66
2023-03-19T08:57:50.870Z,95592.28
2023-03-19T09:00:21.812Z,95585.03
2023-03-19T09:02:51.452Z,95586.16
2023-03-19T09:05:23.326Z,95595.81
2023-03-19T09:07:53.362Z,95593.09
2023-03-19T09:10:23.029Z,95596.63
2023-03-19T09:12:52.679Z,95605.19
2023-03-19T09:15:22.704Z,95597.94
2023-03-19T09:17:53.037Z,95599.28
2023-03-19T09:20:24.848Z,95603.81
2023-03-19T09:22:55.077Z,95598.47
2023-03-19T09:25:24.596Z,95602.50
2023-03-19T09:27:54.156Z,95602.00
2023-03-19T09:30:23.791Z,95596.88
2023-03-19T09:32:53.272Z,95591.25
2023-03-19T09:35:24.971Z,95592.69
2023-03-19T09:37:54.470Z,95595.41
2023-03-19T09:40:29.527Z,95600.88
2023-03-19T09:43:22.530Z,95606.03
2023-03-19T09:45:52.656Z,95613.31
2023-03-19T09:48:35.944Z,95611.75
2023-03-19T09:51:16.612Z,95611.47
2023-03-19T09:53:54.034Z,95611.53
2023-03-19T09:56:25.790Z,95611.53
2023-03-19T09:58:55.879Z,95612.41
2023-03-19T10:01:31.624Z,95603.84
2023-03-19T10:04:40.853Z,95603.88
2023-03-19T10:07:28.856Z,95600.94
2023-03-19T10:10:23.212Z,95603.91
2023-03-19T10:13:08.886Z,95593.13
2023-03-19T10:15:39.475Z,95592.31
2023-03-19T10:18:14.075Z,95597.97
2023-03-19T10:20:54.361Z,95596.63
2023-03-19T10:23:48.254Z,95593.66
2023-03-19T10:26:21.984Z,95596.34
2023-03-19T10:29:05.421Z,95598.50
2023-03-19T10:31:46.288Z,95598.47
2023-03-19T10:34:32.660Z,95590.38
2023-03-19T10:37:06.672Z,95596.03
2023-03-19T10:39:39.257Z,95590.09
2023-03-19T10:42:33.293Z,95588.22
2023-03-19T10:45:15.413Z,95594.41
2023-03-19T10:47:46.349Z,95591.66
2023-03-19T10:50:20.627Z,95584.59
2023-03-19T10:52:59.894Z,95586.19
2023-03-19T10:55:33.305Z,95579.13
2023-03-19T10:58:17.512Z,95579.28
2023-03-19T11:00:50.004Z,95565.97
2023-03-19T11:03:34.235Z,95568.28
2023-03-19T11:06:18.489Z,95566.81
2023-03-19T11:08:58.162Z,95563.81
2023-03-19T11:11:36.973Z,95561.38
2023-03-19T11:14:16.125Z,95557.84
2023-03-19T11:16:58.504Z,95557.00
2023-03-19T11:19:32.676Z,95561.28
2023-03-19T11:22:21.065Z,95563.31
2023-03-19T11:24:58.572Z,95553.22
2023-03-19T11:27:34.892Z,95551.47
2023-03-19T11:30:15.920Z,95549.25
2023-03-19T11:33:27.313Z,95545.78
2023-03-19T11:36:12.959Z,95539.81
2023-03-19T11:39:01.726Z,95542.94
2023-03-19T11:41:50.746Z,95537.81
2023-03-19T11:44:27.849Z,95527.38
2023-03-19T11:47:14.976Z,95525.34
2023-03-19T11:50:18.514Z,95531.50
2023-03-19T11:53:07.017Z,95528.66
2023-03-19T11:55:43.449Z,95524.78
2023-03-19T11:58:59.679Z,95523.16
2023-03-19T12:02:18.758Z,95510.75
2023-03-19T12:05:05.503Z,95512.78
2023-03-19T12:07:50.788Z,95510.44
2023-03-19T12:10:53.805Z,95503.66
2023-03-19T12:13:50.351Z,95505.47
2023-03-19T12:16:30.534Z,95504.16
2023-03-19T12:19:38.842Z,95503.13
2023-03-19T12:22:26.783Z,95499.34
2023-03-19T12:25:26.470Z,95497.22
2023-03-19T12:28:03.423Z,95492.09
2023-03-19T12:30:41.272Z,95485.66
2023-03-19T12:33:30.342Z,95484.91
2023-03-19T12:36:04.693Z,95490.97
2023-03-19T12:38:41.527Z,95483.56
2023-03-19T12:41:18.004Z,95487.22
2023-03-19T12:43:58.443Z,95491.63
2023-03-19T12:46:34.053Z,95493.88
2023-03-19T12:49:14.573Z,95485.81
2023-03-19T12:51:54.166Z,95478.34
2023-03-19T12:54:29.738Z,95484.03
2023-03-19T12:57:07.386Z,95488.63
2023-03-19T12:59:45.361Z,95487.75
2023-03-19T13:02:26.596Z,95478.47
2023-03-19T13:05:01.628Z,95481.56
2023-03-19T13:07:43.638Z,95474.75
2023-03-19T13:10:19.917Z,95479.75
2023-03-19T13:12:53.254Z,95468.59
2023-03-19T13:15:31.901Z,95473.72
2023-03-19T13:18:18.376Z,95473.84
2023-03-19T13:21:11.713Z,95474.53
2023-03-19T13:23:45.476Z,95458.31
2023-03-19T13:26:16.842Z,95460.06
2023-03-19T13:29:02.814Z,95454.97
2023-03-19T13:31:37.506Z,95457.03
2023-03-19T13:34:22.292Z,95459.03
2023-03-19T13:37:02.263Z,95451.94
2023-03-19T13:39:36.166Z,95452.81
2023-03-19T13:42:37.906Z,95451.03
2023-03-19T13:45:35.974Z,95455.97
2023-03-19T13:48:37.110Z,95450.09
2023-03-19T13:51:27.064Z,95443.59
2023-03-19T13:54:08.349Z,95442.81
2023-03-19T13:57:22.578Z,95439.91
2023-03-19T13:59:52.939Z,95432.03
2023-03-19T14:02:54.471Z,95433.31
2023-03-19T14:05:24.291Z,95434.78
2023-03-19T14:07:56.686Z,95429.66
2023-03-19T14:10:29.558Z,95427.56
2023-03-19T14:13:20.114Z,95432.22
2023-03-19T14:15:52.554Z,95432.44
2023-03-19T14:18:25.256Z,95433.97
2023-03-19T14:21:08.854Z,95428.50
2023-03-19T14:23:46.741Z,95426.09
2023-03-19T14:26:20.581Z,95420.88
2023-03-19T14:29:03.587Z,95416.25
2023-03-19T14:31:43.973Z,95410.94
2023-03-19T14:34:25.786Z,95411.25
2023-03-19T14:37:03.327Z,95405.31
2023-03-19T14:39:40.843Z,95412.78
2023-03-19T14:42:21.568Z,95411.56
2023-03-19T14:45:34.623Z,95415.19
2023-03-19T14:48:36.975Z,95407.91
2023-03-19T14:52:04.605Z,95409.63
2023-03-19T14:54:43.221Z,95406.78
2023-03-19T14:59:51.245Z,95404.13
2023-03-19T15:02:37.166Z,95404.00
2023-03-19T15:05:10.649Z,95403.50
2023-03-19T15:07:47.638Z,95404.28
2023-03-19T15:10:21.668Z,95394.94
2023-03-19T15:13:30.064Z,95398.06
2023-03-19T15:16:32.204Z,95397.06
2023-03-19T15:19:04.645Z,95397.00
2023-03-19T15:21:35.593Z,95392.84
2023-03-19T15:24:14.934Z,95391.97
2023-03-19T15:26:47.256Z,95398.75
2023-03-19T15:29:18.987Z,95396.41
2023-03-19T15:32:02.412Z,95401.16
2023-03-19T15:34:37.335Z,95394.06
2023-03-19T15:37:14.192Z,95394.75
2023-03-19T15:39:51.694Z,95401.50
2023-03-19T15:42:24.676Z,95405.00
2023-03-19T15:44:59.984Z,95410.75
2023-03-19T15:47:35.040Z,95411.75
2023-03-19T15:50:13.350Z,95407.13
2023-03-19T15:52:48.704Z,95405.25
2023-03-19T15:55:21.263Z,95406.84
2023-03-19T15:57:51.230Z,95405.25
2023-03-19T16:00:22.032Z,95403.53
2023-03-19T16:02:54.020Z,95406.25
2023-03-19T16:05:32.065Z,95409.94
2023-03-19T16:08:04.257Z,95405.31
2023-03-19T16:10:41.070Z,95412.25
2023-03-19T16:13:31.822Z,95411.13
2023-03-19T16:16:08.074Z,95421.00
2023-03-19T16:18:50.633Z,95415.44
2023-03-19T16:21:25.363Z,95412.41
2023-03-19T16:24:01.340Z,95410.34
2023-03-19T16:26:39.980Z,95413.72
2023-03-19T16:29:22.285Z,95419.78
2023-03-19T16:31:55.329Z,95423.38
2023-03-19T16:34:32.293Z,95428.31
2023-03-19T16:37:04.270Z,95425.16
2023-03-19T16:39:37.572Z,95435.56
2023-03-19T16:42:31.939Z,95431.88
2023-03-19T16:45:19.442Z,95427.41
2023-03-19T16:47:57.413Z,95437.50
2023-03-19T16:50:33.170Z,95439.47
2023-03-19T16:53:08.170Z,95443.31
2023-03-19T16:55:38.741Z,95443.13
2023-03-19T16:58:16.824Z,95449.97
2023-03-19T17:00:48.320Z,95447.09
2023-03-19T17:03:19.984Z,95453.09
2023-03-19T17:05:50.090Z,95456.44
2023-03-19T17:08:21.853Z,95453.53
2023-03-19T17:10:54.597Z,95457.13
2023-03-19T17:13:28.197Z,95459.13
2023-03-19T17:16:02.140Z,95470.00
2023-03-19T17:18:36.536Z,95463.91
2023-03-19T17:21:12.539Z,95476.13
2023-03-19T17:23:46.848Z,95470.53
2023-03-19T17:26:21.172Z,95481.91
2023-03-19T17:28:53.697Z,95487.34
2023-03-19T17:31:28.797Z,95478.53
2023-03-19T17:34:07.925Z,95481.25
2023-03-19T17:36:37.831Z,95485.31
2023-03-19T17:39:12.764Z,95483.47
2023-03-19T17:41:42.972Z,95482.97
2023-03-19T17:44:13.575Z,95489.97
2023-03-19T17:46:48.544Z,95487.00
2023-03-19T17:49:24.646Z,95489.16
2023-03-19T17:51:54.572Z,95487.31
2023-03-19T17:54:27.017Z,95484.91
2023-03-19T17:56:57.627Z,95490.31
2023-03-19T17:59:27.383Z,95491.38
2023-03-19T18:01:57.254Z,95492.72
2023-03-19T18:04:27.141Z,95489.22
2023-03-19T18:06:58.830Z,95496.53
2023-03-19T18:09:56.116Z,95490.59
2023-03-19T18:12:28.560Z,95491.69
2023-03-19T18:15:25.102Z,95498.44
2023-03-19T18:18:00.358Z,95494.94
2023-03-19T18:20:36.379Z,95504.06
2023-03-19T18:23:07.373Z,95497.56
2023-03-19T18:25:42.503Z,95505.94
2023-03-19T18:28:12.412Z,95504.28
2023-03-19T18:30:44.857Z,95507.25
2023-03-19T18:33:21.652Z,95503.72
2023-03-19T18:35:53.736Z,95517.16
2023-03-19T18:38:27.056Z,95507.50
2023-03-19T18:40:58.877Z,95520.66
2023-03-19T18:43:29.292Z,95522.25
2023-03-19T18:45:59.661Z,95520.91
2023-03-19T18:48:33.000Z,95553.19
2023-03-19T18:51:03.505Z,95543.75
2023-03-19T18:53:34.594Z,95560.19
2023-03-19T18:56:24.739Z,95560.78
2023-03-19T19:00:20.131Z,95562.66
2023-03-19T19:02:55.247Z,95574.75
2023-03-19T19:05:30.998Z,95581.81
2023-03-19T19:08:04.290Z,95578.31
2023-03-19T19:10:37.430Z,95587.44
2023-03-19T19:13:16.703Z,95577.44
2023-03-19T19:15:48.171Z,95582.84
2023-03-19T19:18:22.551Z,95591.16
2023-03-19T19:20:55.168Z,95592.22
2023-03-19T19:23:27.365Z,95597.56
2023-03-19T19:25:58.347Z,95597.53
2023-03-19T19:28:34.435Z,95599.41
2023-03-19T19:31:05.603Z,95607.75
2023-03-19T19:33:37.218Z,95603.47
2023-03-19T19:36:09.237Z,95606.69
2023-03-19T19:38:38.853Z,95619.03
2023-03-19T19:41:13.835Z,95613.28
2023-03-19T19:43:47.298Z,95619.19
2023-03-19T19:46:20.356Z,95618.34
2023-03-19T19:48:50.114Z,95621.78
2023-03-19T19:51:23.336Z,95617.97
2023-03-19T19:53:53.145Z,95623.31
2023-03-19T19:56:25.715Z,95621.66
2023-03-19T19:58:57.466Z,95634.47
2023-03-19T20:01:27.834Z,95628.50
2023-03-19T20:03:58.350Z,95629.00
2023-03-19T20:06:28.037Z,95641.31
2023-03-19T20:08:57.517Z,95643.19
2023-03-19T20:11:27.782Z,95651.50
2023-03-19T20:13:58.731Z,95650.44
2023-03-19T20:16:28.812Z,95653.72
2023-03-19T20:18:58.302Z,95655.56
2023-03-19T20:21:29.402Z,95659.25
2023-03-19T20:23:58.892Z,95661.38
2023-03-19T20:26:30.711Z,95661.69
2023-03-19T20:29:01.670Z,95666.44
2023-03-19T20:31:32.843Z,95665.63
2023-03-19T20:34:02.280Z,95678.47
2023-03-19T20:36:31.697Z,95679.84
2023-03-19T20:39:01.134Z,95681.22
2023-03-19T20:41:30.616Z,95678.47
2023-03-19T20:44:04.540Z,95680.84
2023-03-19T20:46:34.023Z,95682.13
2023-03-19T20:49:03.887Z,95689.84
2023-03-19T20:51:34.124Z,95685.81
2023-03-19T20:54:05.390Z,95695.22
2023-03-19T20:56:38.379Z,95693.59
2023-03-19T20:59:12.599Z,95706.19
2023-03-19T21:01:42.027Z,95704.03
2023-03-19T21:04:19.484Z,95699.63
2023-03-19T21:06:53.376Z,95702.56
2023-03-19T21:09:25.849Z,95702.41
2023-03-19T21:11:55.276Z,95702.25
2023-03-19T21:14:27.004Z,95706.00
2023-03-19T21:16:56.429Z,95705.34
2023-03-19T21:19:25.891Z,95708.34
2023-03-19T21:21:55.584Z,95709.97
2023-03-19T21:24:26.148Z,95711.25
2023-03-19T21:26:56.877Z,95704.03
2023-03-19T21:29:33.393Z,95708.59
2023-03-19T21:32:02.850Z,95707.97
2023-03-19T21:34:32.220Z,95703.94
2023-03-19T21:37:01.600Z,95710.34
2023-03-19T21:39:31.300Z,95708.75
2023-03-19T21:42:02.316Z,95704.94
2023-03-19T21:44:33.720Z,95710.03
2023-03-19T21:47:03.539Z,95703.13
2023-03-19T21:49:34.010Z,95708.25
2023-03-19T21:52:04.695Z,95708.75
2023-03-19T21:54:34.882Z,95705.56
2023-03-19T21:57:04.535Z,95712.53
2023-03-19T21:59:35.760Z,95706.06
2023-03-19T22:02:16.976Z,95710.03
2023-03-19T22:04:46.441Z,95711.59
2023-03-19T22:07:17.957Z,95707.53
2023-03-19T22:09:47.417Z,95703.75
2023-03-19T22:12:27.373Z,95709.91
2023-03-19T22:14:58.728Z,95704.81
2023-03-19T22:17:29.122Z,95710.72
2023-03-19T22:19:59.101Z,95707.78
2023-03-19T22:22:29.035Z,95716.97
2023-03-19T22:25:00.302Z,95712.78
2023-03-19T22:27:29.780Z,95715.22
2023-03-19T22:30:02.861Z,95710.38
2023-03-19T22:32:32.492Z,95713.84
2023-03-19T22:35:04.510Z,95721.34
2023-03-19T22:37:34.310Z,95714.59
2023-03-19T22:40:03.814Z,95715.09
2023-03-19T22:42:33.397Z,95719.88
2023-03-19T22:45:04.603Z,95725.69
2023-03-19T22:47:39.216Z,95728.13
2023-03-19T22:50:19.267Z,95728.13
2023-03-19T22:52:48.906Z,95726.88
2023-03-19T22:55:18.772Z,95729.94
2023-03-19T22:57:49.278Z,95725.94
2023-03-19T23:00:25.967Z,95723.75
2023-03-19T23:02:58.687Z,95731.03
2023-03-19T23:05:34.525Z,95729.47
2023-03-19T23:08:06.343Z,95730.78
2023-03-19T23:10:36.285Z,95728.16
2023-03-19T23:13:06.160Z,95726.78
2023-03-19T23:15:37.670Z,95730.50
2023-03-19T23:18:19.218Z,95727.00
2023-03-19T23:20:49.152Z,95725.88
2023-03-19T23:23:18.959Z,95736.59
2023-03-19T23:25:48.957Z,95735.53
2023-03-19T23:28:23.973Z,95730.94
2023-03-19T23:30:54.751Z,95734.09
2023-03-19T23:33:26.864Z,95741.50
2023-03-19T23:35:56.587Z,95742.31
2023-03-19T23:38:26.086Z,95740.38
2023-03-19T23:40:56.690Z,95743.06
2023-03-19T23:43:29.453Z,95743.94
2023-03-19T23:46:01.041Z,95744.13
2023-03-19T23:48:38.489Z,95740.44
2023-03-19T23:51:11.806Z,95747.38
2023-03-19T23:53:42.012Z,95752.47
2023-03-19T23:56:20.664Z,95750.84
2023-03-19T23:58:53.027Z,95741.19
